Aérodrome :
LOGIN :

S'inscrire | Disclaimer

   EN    FR    IT 

 










Légende :    VFR   VFR Marginal   IFR   IFR Intensif   IFR Très Intensif
Visi : 
Plafond : 
>= 8 km
>= 3000ft
5 à 8 km
1000 à 3000 ft
1500m à 5 km
500 à 1000 ft
800 à 1500m
200 à 500 ft
< 800m
< 200 ft
Symboles :   Orages  Brouillard  Fortes neiges  Fortes précipitations  Vent > 20 kt
SIGMETs :   Divers  Orages  Givrage  Turbulence  Onde Orograph.  Cendres Volcan.







- Altitude de l'aérodrome : 978 ft
- Code IATA : LNZ


LOWL - Linz

DERNIER METAR :
  • 220420Z VRB01KT CAVOK 04/M00 Q1014 NOSIG

METARs EXPIRÉS :
  • 220350Z VRB02KT CAVOK 04/00 Q1014 NOSIG
  • 220320Z VRB02KT CAVOK 05/M00 Q1014 NOSIG
  • 220250Z AUTO 26003KT 9999 NSC 06/00 Q1014
  • 220220Z AUTO 26002KT 9999 NSC 07/M00 Q1014
  • 220150Z AUTO 25002KT 9999 NSC 07/M00 Q1015

TAF TAF LOWL
Valide du 22 à 00h jusqu'au 23 à 00h UTC


212315Z 2200/2224 09004KT CAVOK TX21/2214Z TN06/2204Z
BECMG 2207/2209 09010KT
TEMPO 2212/2222 09015G25KT
Pas de NOTAMs connus pour ce terrain.



MET'MAP, la Météo Aéronautique d'un coup d'oeil ! - Copyright ORBIFLY Décembre 2007 - Disclaimer

ORBIFLY MET'MAP TEAM :

Programmation & Développement : Alexandra Zaïnal
Conception & Développement : Baudouin d'Aumeries
Co-Programmation & Développement : Marc-Olivier Méhu
Soutien technique & logistique : Manuel Goepfert

Contact : metmap@orbifly.com




SOURCES & CREDITS :

   NOAA